createdAt,value
2022-12-18T00:01:36.144Z,36.55
2022-12-18T00:04:06.560Z,30.17
2022-12-18T00:06:35.705Z,34.78
2022-12-18T00:09:04.175Z,33.55
2022-12-18T00:11:32.345Z,28.35
2022-12-18T00:14:00.971Z,33.65
2022-12-18T00:16:30.003Z,30.02
2022-12-18T00:18:58.748Z,33.25
2022-12-18T00:21:26.895Z,25.65
2022-12-18T00:23:55.604Z,32.25
2022-12-18T00:26:28.348Z,31.77
2022-12-18T00:29:03.831Z,32.67
2022-12-18T00:31:33.363Z,33.70
2022-12-18T00:34:02.225Z,30.33
2022-12-18T00:36:33.053Z,38.85
2022-12-18T00:39:02.104Z,36.40
2022-12-18T00:41:48.267Z,30.52
2022-12-18T00:44:17.105Z,33.15
2022-12-18T00:46:45.182Z,32.65
2022-12-18T00:49:12.592Z,34.47
2022-12-18T00:51:40.185Z,34.67
2022-12-18T00:54:07.605Z,34.88
2022-12-18T00:56:45.487Z,34.78
2022-12-18T00:59:16.005Z,38.78
2022-12-18T01:01:43.816Z,34.13
2022-12-18T01:04:11.280Z,32.42
2022-12-18T01:06:38.600Z,34.10
2022-12-18T01:09:05.766Z,35.40
2022-12-18T01:11:33.087Z,32.55
2022-12-18T01:14:01.940Z,36.88
2022-12-18T01:16:29.179Z,32.55
2022-12-18T01:18:57.917Z,37.22
2022-12-18T01:21:27.206Z,38.78
2022-12-18T01:23:56.250Z,30.63
2022-12-18T01:26:26.255Z,34.78
2022-12-18T01:28:55.771Z,30.60
2022-12-18T01:31:29.593Z,32.90
2022-12-18T01:33:57.489Z,31.17
2022-12-18T01:36:27.361Z,30.98
2022-12-18T01:38:55.431Z,33.45
2022-12-18T01:41:25.590Z,33.72
2022-12-18T01:43:56.296Z,31.30
2022-12-18T01:46:25.096Z,27.38
2022-12-18T01:49:03.150Z,31.08
2022-12-18T01:51:31.694Z,34.70
2022-12-18T01:54:00.839Z,33.25
2022-12-18T01:56:28.083Z,33.33
2022-12-18T01:59:07.140Z,31.52
2022-12-18T02:01:35.071Z,33.90
2022-12-18T02:04:35.026Z,36.22
2022-12-18T02:07:30.941Z,29.85
2022-12-18T02:09:58.004Z,30.80
2022-12-18T02:12:31.368Z,34.63
2022-12-18T02:15:10.886Z,32.28
2022-12-18T02:17:55.323Z,36.55
2022-12-18T02:20:57.630Z,38.75
2022-12-18T02:23:46.820Z,37.13
2022-12-18T02:26:20.933Z,32.28
2022-12-18T02:29:16.375Z,31.20
2022-12-18T02:31:52.301Z,37.13
2022-12-18T02:34:22.905Z,31.40
2022-12-18T02:36:52.596Z,31.30
2022-12-18T02:39:22.267Z,32.13
2022-12-18T02:42:08.755Z,29.02
2022-12-18T02:44:43.553Z,28.42
2022-12-18T02:47:13.769Z,28.50
2022-12-18T02:49:59.454Z,33.33
2022-12-18T02:53:02.296Z,28.10
2022-12-18T02:55:52.598Z,27.23
2022-12-18T02:58:45.045Z,27.63
2022-12-18T03:01:51.841Z,26.17
2022-12-18T03:04:27.681Z,28.55
2022-12-18T03:06:59.209Z,27.48
2022-12-18T03:12:25.267Z,26.52
2022-12-18T03:15:18.162Z,32.15
2022-12-18T03:18:03.687Z,24.75
2022-12-18T03:20:35.262Z,26.95
2022-12-18T03:23:12.098Z,21.65
2022-12-18T03:25:43.541Z,26.92
2022-12-18T03:28:15.899Z,29.30
2022-12-18T03:30:45.962Z,23.63
2022-12-18T03:33:40.452Z,21.88
2022-12-18T03:36:08.307Z,23.05
2022-12-18T03:38:35.584Z,24.17
2022-12-18T03:41:05.649Z,30.42
2022-12-18T03:44:09.992Z,24.27
2022-12-18T03:46:52.609Z,25.75
2022-12-18T03:49:29.270Z,25.25
2022-12-18T03:52:06.800Z,26.73
2022-12-18T03:54:35.602Z,23.33
2022-12-18T03:57:23.707Z,26.77
2022-12-18T03:59:58.429Z,21.98
2022-12-18T04:02:32.894Z,26.30
2022-12-18T04:05:05.667Z,21.47
2022-12-18T04:07:35.715Z,23.63
2022-12-18T04:10:04.230Z,23.33
2022-12-18T04:12:32.211Z,26.73
2022-12-18T04:14:59.334Z,27.00
2022-12-18T04:17:27.039Z,31.17
2022-12-18T04:19:54.172Z,26.05
2022-12-18T04:22:21.328Z,23.83
2022-12-18T04:24:53.442Z,24.80
2022-12-18T04:27:29.496Z,20.73
2022-12-18T04:29:59.823Z,21.95
2022-12-18T04:32:27.111Z,26.42
2022-12-18T04:34:54.220Z,21.52
2022-12-18T04:37:21.691Z,23.92
2022-12-18T04:39:50.406Z,27.27
2022-12-18T04:42:25.004Z,24.30
2022-12-18T04:44:52.071Z,21.30
2022-12-18T04:47:19.185Z,24.10
2022-12-18T04:49:46.330Z,24.17
2022-12-18T04:52:13.436Z,24.70
2022-12-18T04:54:40.604Z,23.25
2022-12-18T04:57:07.804Z,27.55
2022-12-18T04:59:34.926Z,22.02
2022-12-18T05:02:02.013Z,25.63
2022-12-18T05:04:29.161Z,30.27
2022-12-18T05:06:56.359Z,24.63
2022-12-18T05:09:24.126Z,28.23
2022-12-18T05:11:51.224Z,20.83
2022-12-18T05:14:18.544Z,29.75
2022-12-18T05:16:45.626Z,25.40
2022-12-18T05:19:13.044Z,24.50
2022-12-18T05:21:40.569Z,21.80
2022-12-18T05:24:07.921Z,19.30
2022-12-18T05:26:35.033Z,28.35
2022-12-18T05:29:02.170Z,25.52
2022-12-18T05:31:30.186Z,23.73
2022-12-18T05:33:59.551Z,24.48
2022-12-18T05:36:26.789Z,21.35
2022-12-18T05:38:53.938Z,26.52
2022-12-18T05:41:21.118Z,23.45
2022-12-18T05:43:48.529Z,23.90
2022-12-18T05:46:18.627Z,24.08
2022-12-18T05:48:46.790Z,28.33
2022-12-18T05:51:17.217Z,28.38
2022-12-18T05:53:45.882Z,26.85
2022-12-18T05:56:18.982Z,24.80
2022-12-18T05:58:46.900Z,26.27
2022-12-18T06:01:20.595Z,24.70
2022-12-18T06:03:48.104Z,29.20
2022-12-18T06:06:15.406Z,23.42
2022-12-18T06:08:46.187Z,27.00
2022-12-18T06:11:14.502Z,26.60
2022-12-18T06:13:41.787Z,27.33
2022-12-18T06:16:09.650Z,29.45
2022-12-18T06:18:36.843Z,28.63
2022-12-18T06:21:04.046Z,29.38
2022-12-18T06:23:31.181Z,31.05
2022-12-18T06:25:58.292Z,30.25
2022-12-18T06:28:25.410Z,27.65
2022-12-18T06:30:52.605Z,28.85
2022-12-18T06:33:19.811Z,25.98
2022-12-18T06:35:47.112Z,27.88
2022-12-18T06:38:14.335Z,30.77
2022-12-18T06:40:41.428Z,25.50
2022-12-18T06:43:08.895Z,25.70
2022-12-18T06:45:36.128Z,25.27
2022-12-18T06:48:03.367Z,26.45
2022-12-18T06:50:30.462Z,32.53
2022-12-18T06:52:57.909Z,25.17
2022-12-18T06:55:25.206Z,27.05
2022-12-18T06:57:52.528Z,23.48
2022-12-18T07:00:19.964Z,26.60
2022-12-18T07:02:47.235Z,22.58
2022-12-18T07:05:14.421Z,25.17
2022-12-18T07:07:41.486Z,28.15
2022-12-18T07:10:08.887Z,23.75
2022-12-18T07:12:36.375Z,23.85
2022-12-18T07:15:04.174Z,23.08
2022-12-18T07:17:31.338Z,26.05
2022-12-18T07:19:58.468Z,24.08
2022-12-18T07:22:27.094Z,31.70
2022-12-18T07:24:54.453Z,24.45
2022-12-18T07:27:21.577Z,24.08
2022-12-18T07:29:48.884Z,28.50
2022-12-18T07:32:16.123Z,22.40
2022-12-18T07:34:43.244Z,22.83
2022-12-18T07:37:10.694Z,28.40
2022-12-18T07:39:37.823Z,27.27
2022-12-18T07:42:23.656Z,23.88
2022-12-18T07:44:51.910Z,28.85
2022-12-18T07:47:19.026Z,26.33
2022-12-18T07:49:46.166Z,22.48
2022-12-18T07:52:13.490Z,28.48
2022-12-18T07:54:41.427Z,25.10
2022-12-18T07:57:16.504Z,23.42
2022-12-18T07:59:54.438Z,25.33
2022-12-18T08:02:21.706Z,25.85
2022-12-18T08:04:49.044Z,27.10
2022-12-18T08:07:16.156Z,25.60
2022-12-18T08:09:43.255Z,26.65
2022-12-18T08:12:10.405Z,28.40
2022-12-18T08:14:37.637Z,24.80
2022-12-18T08:17:04.781Z,30.83
2022-12-18T08:19:31.980Z,25.13
2022-12-18T08:21:59.113Z,26.85
2022-12-18T08:24:27.224Z,24.58
2022-12-18T08:27:13.452Z,26.30
2022-12-18T08:29:41.653Z,24.27
2022-12-18T08:32:09.095Z,27.10
2022-12-18T08:34:36.345Z,24.00
2022-12-18T08:37:03.563Z,27.10
2022-12-18T08:39:30.648Z,23.48
2022-12-18T08:42:16.333Z,32.10
2022-12-18T08:44:43.481Z,24.65
2022-12-18T08:47:10.651Z,27.63
2022-12-18T08:49:37.707Z,26.98
2022-12-18T08:52:05.031Z,26.40
2022-12-18T08:54:32.231Z,27.98
2022-12-18T08:56:59.310Z,26.80
2022-12-18T08:59:26.906Z,23.77
2022-12-18T09:01:55.532Z,24.90
2022-12-18T09:04:23.561Z,26.75
2022-12-18T09:06:50.728Z,24.30
2022-12-18T09:09:18.060Z,22.75
2022-12-18T09:11:45.235Z,22.95
2022-12-18T09:14:12.511Z,22.65
2022-12-18T09:16:39.731Z,23.75
2022-12-18T09:19:07.040Z,26.45
2022-12-18T09:21:37.181Z,25.50
2022-12-18T09:24:09.072Z,30.20
2022-12-18T09:26:36.502Z,31.77
2022-12-18T09:29:04.169Z,31.42
2022-12-18T09:31:31.292Z,30.40
2022-12-18T09:33:58.493Z,25.77
2022-12-18T09:36:25.629Z,28.05
2022-12-18T09:38:54.128Z,25.48
2022-12-18T09:41:40.079Z,29.48
2022-12-18T09:44:45.117Z,22.58
2022-12-18T09:47:27.221Z,21.52
2022-12-18T09:49:59.517Z,20.30
2022-12-18T09:52:30.094Z,23.00
2022-12-18T09:55:17.634Z,20.23
2022-12-18T09:57:50.353Z,21.75
2022-12-18T10:00:20.174Z,21.13
2022-12-18T10:02:48.473Z,26.27
2022-12-18T10:05:18.811Z,28.60
2022-12-18T10:07:50.704Z,19.45
2022-12-18T10:10:28.084Z,22.65
2022-12-18T10:13:05.682Z,19.90
2022-12-18T10:16:06.647Z,19.17
2022-12-18T10:18:48.892Z,23.05
2022-12-18T10:21:48.029Z,23.45
2022-12-18T10:24:50.587Z,25.95
2022-12-18T10:27:20.691Z,20.15
2022-12-18T10:29:47.874Z,23.52
2022-12-18T10:32:18.987Z,23.15
2022-12-18T10:34:56.669Z,22.23
2022-12-18T10:37:29.781Z,20.70
2022-12-18T10:40:18.264Z,21.42
2022-12-18T10:43:13.789Z,23.80
2022-12-18T10:45:41.486Z,19.35
2022-12-18T10:48:23.390Z,22.08
2022-12-18T10:53:42.922Z,23.35
2022-12-18T10:56:10.485Z,16.83
2022-12-18T10:58:40.380Z,18.50
2022-12-18T11:01:17.304Z,25.08
2022-12-18T11:03:52.515Z,19.40
2022-12-18T11:06:25.380Z,22.95
2022-12-18T11:09:26.247Z,23.63
2022-12-18T11:12:00.223Z,24.33
2022-12-18T11:14:31.987Z,26.05
2022-12-18T11:19:55.288Z,19.27
2022-12-18T11:22:29.841Z,19.63
2022-12-18T11:25:34.905Z,24.05
2022-12-18T11:28:27.086Z,21.20
2022-12-18T11:31:25.095Z,25.15
2022-12-18T11:34:28.627Z,19.83
2022-12-18T11:36:58.724Z,25.42
2022-12-18T11:39:49.925Z,24.90
2022-12-18T11:42:29.059Z,26.40
2022-12-18T11:45:00.750Z,24.88
2022-12-18T11:48:01.607Z,26.15
2022-12-18T11:50:56.737Z,24.58
2022-12-18T11:53:25.932Z,25.35
2022-12-18T11:56:24.140Z,24.17
2022-12-18T11:58:57.601Z,27.13
2022-12-18T12:01:52.660Z,23.23
2022-12-18T12:04:47.832Z,19.70
2022-12-18T12:07:14.999Z,27.52
2022-12-18T12:10:04.217Z,26.65
2022-12-18T12:12:52.106Z,26.05
2022-12-18T12:15:40.785Z,24.63
2022-12-18T12:18:29.094Z,22.67
2022-12-18T12:21:20.850Z,21.90
2022-12-18T12:23:50.778Z,24.75
2022-12-18T12:26:34.093Z,21.38
2022-12-18T12:29:14.409Z,22.90
2022-12-18T12:31:54.200Z,20.92
2022-12-18T12:34:41.464Z,26.15
2022-12-18T12:37:38.943Z,20.80
2022-12-18T12:40:26.948Z,24.05
2022-12-18T12:43:15.367Z,22.83
2022-12-18T12:45:56.072Z,27.52
2022-12-18T12:48:36.167Z,25.33
2022-12-18T12:51:10.759Z,26.98
2022-12-18T12:53:40.693Z,21.65
2022-12-18T12:56:12.520Z,22.60
2022-12-18T12:58:45.603Z,23.98
2022-12-18T13:01:33.463Z,25.83
2022-12-18T13:04:30.495Z,23.45
2022-12-18T13:07:02.490Z,19.60
2022-12-18T13:09:36.634Z,21.50
2022-12-18T13:12:29.135Z,24.55
2022-12-18T13:15:23.508Z,21.08
2022-12-18T13:18:03.621Z,18.95
2022-12-18T13:20:35.987Z,21.13
2022-12-18T13:23:23.786Z,19.00
2022-12-18T13:25:57.988Z,19.70
2022-12-18T13:28:48.108Z,17.83
2022-12-18T13:31:39.846Z,20.25
2022-12-18T13:34:27.587Z,21.10
2022-12-18T13:36:58.554Z,21.38
2022-12-18T13:39:35.351Z,16.02
2022-12-18T13:42:05.893Z,19.08
2022-12-18T13:44:41.601Z,22.00
2022-12-18T13:47:32.101Z,18.60
2022-12-18T13:50:00.136Z,14.32
2022-12-18T13:52:34.480Z,18.40
2022-12-18T13:55:03.887Z,19.17
2022-12-18T13:57:39.601Z,18.92
2022-12-18T14:00:36.963Z,17.90
2022-12-18T14:03:27.252Z,14.60
2022-12-18T14:06:02.405Z,14.20
2022-12-18T14:08:35.886Z,13.73
2022-12-18T14:11:06.616Z,14.73
2022-12-18T14:13:40.748Z,16.58
2022-12-18T14:16:09.091Z,14.73
2022-12-18T14:18:39.556Z,17.40
2022-12-18T14:21:07.902Z,14.43
2022-12-18T14:23:39.006Z,12.68
2022-12-18T14:26:30.344Z,14.57
2022-12-18T14:29:02.094Z,13.63
2022-12-18T14:31:31.957Z,12.82
2022-12-18T14:33:59.302Z,11.90
2022-12-18T14:36:28.785Z,13.15
2022-12-18T14:38:58.263Z,11.05
2022-12-18T14:41:26.792Z,11.45
2022-12-18T14:43:55.368Z,10.35
2022-12-18T14:46:28.623Z,14.43
2022-12-18T14:48:56.844Z,13.55
2022-12-18T14:51:28.621Z,14.43
2022-12-18T14:54:04.320Z,14.43
2022-12-18T14:56:44.299Z,13.55
2022-12-18T14:59:24.625Z,11.48
2022-12-18T15:01:55.187Z,13.10
2022-12-18T15:04:29.713Z,11.55
2022-12-18T15:07:17.383Z,10.75
2022-12-18T15:10:25.086Z,11.75
2022-12-18T15:13:10.102Z,11.80
2022-12-18T15:15:37.359Z,9.48
2022-12-18T15:18:13.712Z,11.60
2022-12-18T15:21:11.805Z,9.20
2022-12-18T15:23:44.938Z,14.48
2022-12-18T15:26:15.671Z,12.07
2022-12-18T15:29:04.103Z,9.00
2022-12-18T15:31:39.280Z,9.00
2022-12-18T15:34:09.386Z,9.75
2022-12-18T15:36:37.573Z,10.43
2022-12-18T15:39:06.856Z,10.95
2022-12-18T15:41:36.523Z,10.80
2022-12-18T15:44:22.420Z,11.52
2022-12-18T15:46:49.666Z,9.25
2022-12-18T15:49:16.847Z,12.35
2022-12-18T15:51:44.378Z,9.65
2022-12-18T15:54:17.180Z,11.25
2022-12-18T15:57:02.632Z,9.45
2022-12-18T15:59:29.726Z,7.82
2022-12-18T16:01:57.995Z,9.52
2022-12-18T16:04:26.264Z,7.13
2022-12-18T16:09:41.094Z,5.65
2022-12-18T16:12:17.723Z,6.57
2022-12-18T16:14:45.583Z,6.72
2022-12-18T16:17:14.568Z,6.93
2022-12-18T16:19:41.728Z,5.45
2022-12-18T16:22:22.098Z,6.15
2022-12-18T16:24:50.332Z,5.63
2022-12-18T16:27:17.929Z,4.25
2022-12-18T16:29:45.372Z,5.43
2022-12-18T16:32:17.690Z,4.78
2022-12-18T16:34:45.221Z,4.47
2022-12-18T16:37:14.753Z,5.20
2022-12-18T16:39:42.916Z,6.15
2022-12-18T16:42:21.143Z,4.47
2022-12-18T16:44:49.802Z,3.63
2022-12-18T16:47:17.974Z,5.28
2022-12-18T16:49:46.225Z,5.25
2022-12-18T16:52:14.190Z,5.18
2022-12-18T16:54:41.268Z,3.92
2022-12-18T16:57:13.102Z,3.05
2022-12-18T16:59:40.190Z,5.50
2022-12-18T17:02:30.517Z,6.53
2022-12-18T17:04:58.661Z,4.28
2022-12-18T17:07:28.276Z,4.32
2022-12-18T17:09:55.928Z,3.63
2022-12-18T17:12:24.015Z,3.45
2022-12-18T17:14:51.314Z,4.20
2022-12-18T17:17:21.792Z,4.32
2022-12-18T17:19:50.991Z,5.07
2022-12-18T17:22:18.205Z,4.40
2022-12-18T17:24:46.473Z,4.00
2022-12-18T17:27:13.622Z,4.57
2022-12-18T17:29:47.208Z,4.38
2022-12-18T17:32:14.779Z,4.20
2022-12-18T17:34:42.041Z,4.18
2022-12-18T17:37:09.487Z,4.00
2022-12-18T17:39:36.735Z,6.00
2022-12-18T17:42:04.026Z,4.18
2022-12-18T17:44:34.373Z,5.25
2022-12-18T17:47:01.997Z,3.17
2022-12-18T17:49:29.271Z,4.32
2022-12-18T17:51:56.381Z,4.60
2022-12-18T17:54:23.602Z,6.32
2022-12-18T17:56:50.691Z,5.90
2022-12-18T17:59:17.923Z,3.97
2022-12-18T18:01:46.333Z,4.72
2022-12-18T18:04:14.742Z,3.60
2022-12-18T18:06:41.923Z,4.63
2022-12-18T18:09:16.263Z,3.80
2022-12-18T18:12:04.072Z,3.30
2022-12-18T18:14:31.961Z,4.97
2022-12-18T18:17:04.036Z,3.60
2022-12-18T18:19:33.245Z,5.22
2022-12-18T18:22:01.693Z,4.40
2022-12-18T18:24:30.475Z,4.32
2022-12-18T18:26:59.668Z,3.10
2022-12-18T18:29:27.947Z,3.78
2022-12-18T18:31:56.921Z,3.58
2022-12-18T18:34:27.098Z,3.00
2022-12-18T18:36:55.084Z,3.67
2022-12-18T18:39:22.356Z,3.28
2022-12-18T18:41:49.606Z,4.03
2022-12-18T18:44:19.122Z,3.35
2022-12-18T18:46:47.770Z,3.50
2022-12-18T18:49:15.343Z,3.83
2022-12-18T18:51:42.759Z,4.13
2022-12-18T18:54:10.415Z,3.90
2022-12-18T18:57:11.701Z,3.85
2022-12-18T18:59:29.156Z,3.75
2022-12-18T19:02:04.096Z,7.40
2022-12-18T19:04:33.274Z,5.00
2022-12-18T19:07:00.469Z,4.05
2022-12-18T19:09:28.114Z,3.58
2022-12-18T19:12:14.915Z,4.57
2022-12-18T19:14:42.684Z,3.35
2022-12-18T19:17:10.842Z,6.85
2022-12-18T19:19:38.249Z,3.42
2022-12-18T19:22:05.587Z,3.38
2022-12-18T19:24:32.862Z,2.88
2022-12-18T19:27:00.147Z,2.78
2022-12-18T19:29:27.241Z,4.72
2022-12-18T19:31:54.660Z,3.42
2022-12-18T19:34:21.908Z,3.35
2022-12-18T19:36:49.179Z,4.60
2022-12-18T19:39:19.188Z,5.55
2022-12-18T19:41:47.322Z,3.90
2022-12-18T19:44:17.398Z,3.35
2022-12-18T19:46:46.402Z,4.03
2022-12-18T19:49:18.085Z,3.88
2022-12-18T19:51:46.152Z,2.38
2022-12-18T19:54:17.029Z,3.33
2022-12-18T19:56:45.575Z,4.15
2022-12-18T19:59:13.392Z,5.43
2022-12-18T20:01:40.770Z,3.50
2022-12-18T20:04:08.649Z,4.63
2022-12-18T20:06:47.475Z,7.47
2022-12-18T20:09:15.042Z,4.82
2022-12-18T20:11:42.780Z,3.90
2022-12-18T20:14:11.116Z,3.10
2022-12-18T20:16:38.798Z,3.22
2022-12-18T20:19:07.093Z,4.90
2022-12-18T20:21:34.279Z,4.15
2022-12-18T20:24:02.169Z,3.10
2022-12-18T20:26:29.801Z,3.25
2022-12-18T20:28:57.125Z,4.20
2022-12-18T20:31:24.805Z,3.80
2022-12-18T20:33:54.432Z,3.45
2022-12-18T20:36:24.727Z,5.88
2022-12-18T20:38:57.171Z,3.77
2022-12-18T20:41:27.708Z,7.00
2022-12-18T20:44:05.982Z,2.90
2022-12-18T20:46:40.814Z,5.18
2022-12-18T20:49:08.302Z,3.42
2022-12-18T20:51:36.169Z,4.72
2022-12-18T20:54:03.475Z,3.08
2022-12-18T20:56:33.544Z,3.28
2022-12-18T20:59:01.067Z,4.43
2022-12-18T21:01:29.702Z,5.15
2022-12-18T21:03:57.011Z,2.67
2022-12-18T21:06:25.070Z,5.28
2022-12-18T21:08:52.322Z,3.13
2022-12-18T21:11:40.984Z,2.40
2022-12-18T21:14:12.410Z,3.28
2022-12-18T21:16:43.960Z,2.20
2022-12-18T21:19:13.398Z,3.72
2022-12-18T21:21:40.826Z,3.03
2022-12-18T21:24:09.764Z,3.40
2022-12-18T21:26:44.836Z,2.55
2022-12-18T21:29:16.515Z,2.55
2022-12-18T21:31:44.781Z,2.25
2022-12-18T21:34:20.448Z,1.67
2022-12-18T21:36:48.718Z,2.22
2022-12-18T21:39:17.364Z,2.25
2022-12-18T21:42:04.034Z,2.33
2022-12-18T21:44:32.806Z,2.00
2022-12-18T21:47:22.860Z,1.45
2022-12-18T21:49:52.877Z,1.87
2022-12-18T21:52:27.240Z,1.92
2022-12-18T21:55:07.831Z,2.20
2022-12-18T21:57:36.827Z,2.63
2022-12-18T22:00:05.611Z,1.95
2022-12-18T22:02:39.523Z,1.48
2022-12-18T22:05:07.264Z,1.60
2022-12-18T22:07:34.395Z,1.08
2022-12-18T22:10:01.968Z,1.17
2022-12-18T22:12:35.808Z,1.33
2022-12-18T22:15:12.779Z,1.92
2022-12-18T22:17:48.904Z,1.33
2022-12-18T22:20:16.127Z,1.10
2022-12-18T22:22:43.377Z,1.08
2022-12-18T22:25:11.041Z,1.25
2022-12-18T22:27:38.464Z,1.10
2022-12-18T22:30:06.190Z,1.23
2022-12-18T22:32:34.073Z,1.40
2022-12-18T22:35:09.222Z,1.33
2022-12-18T22:37:37.672Z,0.70
2022-12-18T22:40:07.337Z,1.30
2022-12-18T22:42:34.771Z,1.20
2022-12-18T22:45:02.053Z,1.13
2022-12-18T22:47:30.488Z,1.00
2022-12-18T22:49:58.598Z,1.50
2022-12-18T22:52:26.156Z,1.05
2022-12-18T22:54:54.437Z,1.67
2022-12-18T22:57:22.478Z,1.38
2022-12-18T22:59:50.839Z,1.88
2022-12-18T23:02:19.312Z,2.88
2022-12-18T23:04:47.912Z,2.45
2022-12-18T23:07:19.010Z,1.77
2022-12-18T23:09:47.264Z,2.00
2022-12-18T23:12:17.093Z,3.92
2022-12-18T23:14:44.383Z,3.33
2022-12-18T23:17:11.833Z,5.40
2022-12-18T23:19:42.814Z,4.57
2022-12-18T23:22:12.765Z,3.72
2022-12-18T23:24:42.893Z,4.78
2022-12-18T23:27:12.501Z,3.92
2022-12-18T23:29:40.701Z,5.55
2022-12-18T23:32:08.427Z,5.35
2022-12-18T23:34:37.927Z,5.32
2022-12-18T23:37:05.067Z,3.80
2022-12-18T23:39:32.143Z,3.65
2022-12-18T23:41:59.883Z,1.70
2022-12-18T23:44:27.088Z,4.57
2022-12-18T23:46:54.830Z,4.22
2022-12-18T23:49:22.061Z,2.83
2022-12-18T23:51:49.441Z,2.55
2022-12-18T23:54:16.519Z,3.50
2022-12-18T23:56:43.782Z,2.30
2022-12-18T23:59:12.034Z,3.58
